Time;durP1;ratioP1;P1;durP2;ratioP2;P2;SDS_P1;SDS_P2;PMS_P1;PMS_P2;Temp;Humidity;BMP_temperature;BMP_pressure;BME280_temperature;BME280_humidity;BME280_pressure;Samples;Min_cycle;Max_cycle;Signal;HPM_P1;HPM_P2
2023/01/20 00:02:15;;;;;;;14.07;9.00;;;0.50;99.90;;;;;;8082096;22;20571;-88
2023/01/20 00:06:01;;;;;;;15.17;9.93;;;0.50;99.90;;;;;;7786025;28;20179;-88
2023/01/20 00:09:47;;;;;;;14.47;8.97;;;0.50;99.90;;;;;;7801622;28;20298;-89
2023/01/20 00:13:35;;;;;;;17.20;9.80;;;0.50;99.90;;;;;;7793024;28;20185;-88
2023/01/20 00:17:21;;;;;;;14.47;9.33;;;0.50;99.90;;;;;;7792405;28;20178;-88
2023/01/20 00:21:10;;;;;;;16.00;9.50;;;0.40;99.90;;;;;;7792848;28;20198;-89
2023/01/20 00:24:55;;;;;;;15.20;9.07;;;0.50;99.90;;;;;;7786230;28;20229;-87
2023/01/20 00:28:42;;;;;;;17.97;9.33;;;0.40;99.90;;;;;;7766364;28;20200;-88
2023/01/20 00:32:28;;;;;;;16.27;10.20;;;0.40;99.90;;;;;;7761673;28;20270;-88
2023/01/20 00:36:15;;;;;;;17.80;10.67;;;0.50;99.90;;;;;;7761530;28;20206;-88
2023/01/20 00:40:00;;;;;;;19.07;10.90;;;0.50;99.90;;;;;;7761056;28;20231;-88
2023/01/20 00:43:46;;;;;;;17.73;10.77;;;0.50;99.90;;;;;;7774363;28;20218;-88
2023/01/20 00:47:32;;;;;;;20.43;11.07;;;0.50;99.90;;;;;;7806603;28;20643;-88
2023/01/20 00:51:18;;;;;;;19.40;10.90;;;0.50;99.90;;;;;;7822657;28;20200;-88
2023/01/20 00:55:04;;;;;;;16.57;10.10;;;0.50;99.90;;;;;;7824666;28;20182;-89
2023/01/20 00:58:49;;;;;;;17.00;10.57;;;0.50;99.90;;;;;;7814991;28;20648;-88
2023/01/20 01:02:38;;;;;;;17.07;10.77;;;0.50;99.90;;;;;;7766904;28;20218;-89
2023/01/20 01:06:24;;;;;;;19.20;10.63;;;0.50;99.90;;;;;;7761256;28;20175;-87
2023/01/20 01:10:10;;;;;;;18.73;10.73;;;0.50;99.90;;;;;;7760739;28;20471;-88
2023/01/20 01:13:56;;;;;;;16.73;10.30;;;0.50;99.90;;;;;;7776044;28;20179;-89
2023/01/20 01:17:42;;;;;;;19.53;10.77;;;0.50;99.90;;;;;;7771892;28;20196;-89
2023/01/20 01:21:28;;;;;;;21.30;10.73;;;0.50;99.90;;;;;;7760270;28;20223;-88
2023/01/20 01:25:14;;;;;;;17.53;10.17;;;0.50;99.90;;;;;;7760151;28;20730;-89
2023/01/20 01:29:00;;;;;;;15.57;10.30;;;0.50;99.90;;;;;;7759286;28;20215;-89
2023/01/20 01:32:46;;;;;;;19.77;11.13;;;0.50;99.90;;;;;;7769830;28;20183;-88
2023/01/20 01:36:32;;;;;;;18.23;11.00;;;0.50;99.90;;;;;;7778477;28;20528;-88
2023/01/20 01:40:17;;;;;;;19.43;11.60;;;0.50;99.90;;;;;;7810225;28;20202;-89
2023/01/20 01:44:12;;;;;;;21.47;11.30;;;0.50;99.90;;;;;;7839179;28;20525;-87
2023/01/20 01:48:09;;;;;;;19.83;11.30;;;0.50;99.90;;;;;;7820847;28;20243;-88
2023/01/20 01:52:01;;;;;;;18.77;11.17;;;0.50;99.90;;;;;;7810530;28;20378;-89
2023/01/20 01:55:52;;;;;;;19.30;12.07;;;0.50;99.90;;;;;;7759638;28;20187;-88
2023/01/20 01:59:38;;;;;;;21.17;12.17;;;0.50;99.90;;;;;;7758997;28;20301;-89
2023/01/20 02:03:35;;;;;;;20.60;11.93;;;0.50;99.90;;;;;;7759745;28;20183;-88
2023/01/20 02:07:21;;;;;;;21.97;12.13;;;0.50;99.90;;;;;;7761984;28;20175;-89
2023/01/20 02:11:07;;;;;;;19.80;12.13;;;0.50;99.90;;;;;;7767525;28;20451;-88
2023/01/20 02:14:56;;;;;;;22.63;12.73;;;0.50;99.90;;;;;;7759325;28;20648;-88
2023/01/20 02:19:17;;;;;;;21.33;12.53;;;0.50;99.90;;;;;;7758435;28;20289;-88
2023/01/20 02:23:15;;;;;;;22.37;12.70;;;0.50;99.90;;;;;;7759024;28;20261;-88
2023/01/20 02:27:27;;;;;;;20.63;12.10;;;0.50;99.90;;;;;;7763836;28;20213;-89
2023/01/20 02:31:49;;;;;;;22.80;12.50;;;0.50;99.90;;;;;;7758655;28;20199;-88
2023/01/20 02:35:48;;;;;;;22.30;12.90;;;0.50;99.90;;;;;;7757946;28;20221;-88
2023/01/20 02:39:38;;;;;;;23.23;12.73;;;0.50;99.90;;;;;;7757493;28;20285;-89
2023/01/20 02:43:43;;;;;;;24.57;12.80;;;0.50;99.90;;;;;;7757945;28;20226;-88
2023/01/20 02:47:31;;;;;;;25.00;13.70;;;0.40;99.90;;;;;;7787159;28;20211;-89
2023/01/20 02:51:26;;;;;;;26.40;13.87;;;0.50;99.90;;;;;;7757845;28;20288;-88
2023/01/20 02:55:35;;;;;;;24.67;14.33;;;0.50;99.90;;;;;;7757689;28;20174;-89
2023/01/20 02:59:24;;;;;;;27.43;13.73;;;0.50;99.90;;;;;;7757170;28;20215;-88
2023/01/20 03:03:14;;;;;;;26.50;14.53;;;0.50;99.90;;;;;;7788002;28;20679;-88
2023/01/20 03:07:01;;;;;;;27.13;15.70;;;0.50;99.90;;;;;;7757601;28;20195;-88
2023/01/20 03:10:50;;;;;;;27.73;14.97;;;0.50;99.90;;;;;;7757812;28;20219;-89
2023/01/20 03:14:36;;;;;;;27.77;15.30;;;0.60;99.90;;;;;;7757399;28;20176;-89
2023/01/20 03:18:22;;;;;;;28.20;15.57;;;0.50;99.90;;;;;;7775368;28;20186;-89
2023/01/20 03:22:08;;;;;;;28.77;15.27;;;0.50;99.90;;;;;;7759419;28;20231;-88
2023/01/20 03:25:55;;;;;;;27.27;14.67;;;0.60;99.90;;;;;;7774760;28;20576;-89
2023/01/20 03:29:40;;;;;;;33.10;15.60;;;0.50;99.90;;;;;;7757161;28;20233;-88
2023/01/20 03:33:26;;;;;;;26.37;14.83;;;0.50;99.90;;;;;;7758557;28;20268;-89
2023/01/20 03:37:12;;;;;;;29.43;15.47;;;0.50;99.90;;;;;;7791280;28;20186;-88
2023/01/20 03:41:11;;;;;;;26.70;15.07;;;0.50;99.90;;;;;;7800254;28;20198;-88
2023/01/20 03:44:59;;;;;;;28.13;15.40;;;0.50;99.90;;;;;;7794276;28;20259;-89
2023/01/20 03:49:11;;;;;;;29.37;15.73;;;0.50;99.90;;;;;;7793930;28;20202;-88
2023/01/20 03:53:12;;;;;;;33.97;15.77;;;0.50;99.90;;;;;;7794628;28;20182;-88
2023/01/20 03:57:03;;;;;;;31.73;14.07;;;0.60;99.90;;;;;;7794185;28;20241;-89
2023/01/20 04:00:50;;;;;;;31.67;15.90;;;0.50;99.90;;;;;;7763098;28;20273;-88
2023/01/20 04:04:40;;;;;;;30.23;14.93;;;0.50;99.90;;;;;;7780253;28;20653;-88
2023/01/20 04:08:32;;;;;;;26.20;14.87;;;0.50;99.90;;;;;;7779796;28;20207;-88
2023/01/20 04:12:17;;;;;;;27.77;14.73;;;0.50;99.90;;;;;;7791277;28;20193;-89
2023/01/20 04:16:10;;;;;;;31.13;14.97;;;0.50;99.90;;;;;;7790219;28;20179;-88
2023/01/20 04:19:59;;;;;;;30.30;15.30;;;0.70;99.90;;;;;;7791944;28;20683;-89
2023/01/20 04:23:55;;;;;;;25.77;14.73;;;0.70;99.90;;;;;;7792614;28;20189;-89
2023/01/20 04:27:41;;;;;;;26.63;13.67;;;0.50;99.90;;;;;;7789374;28;20189;-88
2023/01/20 04:31:26;;;;;;;29.33;15.67;;;0.50;99.90;;;;;;7786382;28;20219;-88
2023/01/20 04:35:15;;;;;;;26.80;14.23;;;0.50;99.90;;;;;;7761619;28;20710;-89
2023/01/20 04:39:01;;;;;;;27.40;14.27;;;0.50;99.90;;;;;;7761116;28;20203;-89
2023/01/20 04:42:46;;;;;;;27.43;14.00;;;0.50;99.90;;;;;;7762705;28;20192;-89
2023/01/20 04:46:32;;;;;;;25.93;13.87;;;0.60;99.90;;;;;;7795173;28;20277;-88
2023/01/20 04:50:17;;;;;;;22.07;12.67;;;0.50;99.90;;;;;;7809660;28;20221;-89
2023/01/20 04:54:03;;;;;;;23.47;12.87;;;0.50;99.90;;;;;;7790819;28;20229;-86
2023/01/20 04:57:49;;;;;;;25.30;13.27;;;0.50;99.90;;;;;;7788946;28;20679;-88
2023/01/20 05:01:35;;;;;;;29.97;14.80;;;0.60;99.90;;;;;;7784333;28;20248;-87
2023/01/20 05:05:20;;;;;;;32.33;14.70;;;0.60;99.90;;;;;;7795495;28;20182;-87
2023/01/20 05:09:09;;;;;;;28.67;14.13;;;0.50;99.90;;;;;;7790758;28;20404;-88
2023/01/20 05:12:55;;;;;;;28.77;14.07;;;0.60;99.90;;;;;;7808249;28;20284;-87
2023/01/20 05:16:41;;;;;;;25.93;13.83;;;0.50;99.90;;;;;;7792126;28;20178;-89
2023/01/20 05:20:27;;;;;;;31.50;15.23;;;0.60;99.90;;;;;;7789661;28;20222;-88
2023/01/20 05:24:14;;;;;;;26.77;14.00;;;0.50;99.90;;;;;;7761390;28;20237;-88
2023/01/20 05:27:59;;;;;;;25.77;13.67;;;0.60;99.90;;;;;;7760800;28;20245;-88
2023/01/20 05:31:45;;;;;;;25.07;13.30;;;0.70;99.90;;;;;;7780802;28;20297;-84
2023/01/20 05:35:31;;;;;;;26.13;13.93;;;0.70;99.90;;;;;;7781056;28;20520;-86
2023/01/20 05:39:16;;;;;;;23.87;12.83;;;0.60;99.90;;;;;;7788790;28;20950;-85
2023/01/20 05:43:02;;;;;;;22.67;12.77;;;0.60;99.90;;;;;;7787533;28;20652;-88
2023/01/20 05:46:48;;;;;;;23.27;12.60;;;0.70;99.90;;;;;;7801286;28;20189;-89
2023/01/20 05:50:33;;;;;;;24.37;14.10;;;0.60;99.90;;;;;;7789994;28;20754;-89
2023/01/20 05:54:19;;;;;;;30.10;16.63;;;0.70;99.90;;;;;;7790414;28;20186;-90
2023/01/20 05:58:06;;;;;;;21.80;12.57;;;0.80;99.90;;;;;;7779704;28;20222;-89
2023/01/20 06:01:51;;;;;;;22.33;11.83;;;0.70;99.90;;;;;;7770191;28;20301;-91
2023/01/20 06:05:37;;;;;;;20.90;11.17;;;0.70;99.90;;;;;;7795286;28;20186;-90
2023/01/20 06:09:22;;;;;;;19.23;11.23;;;0.60;99.90;;;;;;7777479;28;20215;-90
2023/01/20 06:13:08;;;;;;;21.13;11.97;;;0.60;99.90;;;;;;7782573;28;20275;-91
2023/01/20 06:16:54;;;;;;;23.40;12.83;;;0.60;99.90;;;;;;7808579;28;20175;-90
2023/01/20 06:20:39;;;;;;;24.03;13.07;;;0.60;99.90;;;;;;7792184;28;20211;-91
2023/01/20 06:24:25;;;;;;;23.93;12.57;;;0.60;99.90;;;;;;7778096;28;20261;-90
2023/01/20 06:28:10;;;;;;;29.70;16.27;;;0.60;99.90;;;;;;7777725;28;20199;-90
2023/01/20 06:31:56;;;;;;;33.13;15.83;;;0.60;99.90;;;;;;7760047;28;20196;-91
2023/01/20 06:35:42;;;;;;;28.50;13.43;;;0.60;99.90;;;;;;7784830;28;20266;-91
2023/01/20 06:39:27;;;;;;;31.83;15.97;;;0.60;99.90;;;;;;7807625;28;20229;-91
2023/01/20 06:43:13;;;;;;;27.00;13.20;;;0.70;99.90;;;;;;7807086;28;20191;-90
2023/01/20 06:46:59;;;;;;;31.43;15.00;;;0.70;99.90;;;;;;7790183;28;20241;-91
2023/01/20 06:50:44;;;;;;;33.47;16.00;;;0.60;99.90;;;;;;7807313;28;20229;-91
2023/01/20 06:54:30;;;;;;;27.83;15.07;;;0.60;99.90;;;;;;7780418;28;20184;-90
2023/01/20 06:58:16;;;;;;;33.50;17.20;;;0.60;99.90;;;;;;7785148;28;20189;-90
2023/01/20 07:02:01;;;;;;;34.13;19.23;;;0.70;99.90;;;;;;7789835;28;20244;-91
2023/01/20 07:06:01;;;;;;;47.00;24.60;;;0.60;99.90;;;;;;7790196;28;20178;-92
2023/01/20 07:09:46;;;;;;;40.13;22.03;;;0.60;99.90;;;;;;7797034;28;20587;-90
2023/01/20 07:13:32;;;;;;;34.20;18.50;;;0.70;99.90;;;;;;7820903;28;20547;-90
2023/01/20 07:17:18;;;;;;;35.83;17.27;;;0.60;99.90;;;;;;7820338;28;20178;-90
2023/01/20 07:21:04;;;;;;;38.63;18.53;;;0.60;99.90;;;;;;7807890;28;20198;-91
2023/01/20 07:24:49;;;;;;;91.07;32.37;;;0.60;99.90;;;;;;7788665;28;20189;-92
2023/01/20 07:28:36;;;;;;;45.73;23.43;;;0.60;99.90;;;;;;7778979;28;20734;-92
2023/01/20 07:32:22;;;;;;;39.13;18.47;;;0.60;99.90;;;;;;7782906;28;20175;-92
2023/01/20 07:36:08;;;;;;;37.17;16.90;;;0.60;99.90;;;;;;7759498;28;20188;-91
2023/01/20 07:39:54;;;;;;;36.73;18.40;;;0.60;99.90;;;;;;7758756;28;20552;-91
2023/01/20 07:43:40;;;;;;;33.70;17.87;;;0.80;99.90;;;;;;7785855;28;20266;-92
2023/01/20 07:47:26;;;;;;;40.67;20.87;;;0.70;99.90;;;;;;7784466;28;20199;-89
2023/01/20 07:51:13;;;;;;;44.33;20.60;;;0.70;99.90;;;;;;7789164;28;20333;-90
2023/01/20 07:54:59;;;;;;;41.87;19.40;;;0.70;99.90;;;;;;7794621;28;20186;-89
2023/01/20 07:58:45;;;;;;;36.03;17.73;;;0.70;99.90;;;;;;7762898;28;20184;-89
2023/01/20 08:02:35;;;;;;;36.03;16.77;;;0.70;99.90;;;;;;7786578;28;20199;-91
2023/01/20 08:06:23;;;;;;;35.30;17.03;;;0.70;99.90;;;;;;7788963;28;20183;-92
2023/01/20 08:10:09;;;;;;;35.00;15.80;;;0.70;99.90;;;;;;7787972;28;20240;-91
2023/01/20 08:13:54;;;;;;;34.43;17.13;;;0.70;99.90;;;;;;7788945;28;20179;-91
2023/01/20 08:17:40;;;;;;;91.07;33.37;;;0.70;99.90;;;;;;7788978;28;20206;-91
2023/01/20 08:21:29;;;;;;;45.10;22.40;;;0.70;99.90;;;;;;7788821;28;20241;-92
2023/01/20 08:25:15;;;;;;;49.90;25.23;;;0.70;99.90;;;;;;7792315;28;20566;-91
2023/01/20 08:29:06;;;;;;;41.40;21.17;;;0.70;99.90;;;;;;7768435;28;20210;-91
2023/01/20 08:32:52;;;;;;;38.83;19.13;;;0.70;99.90;;;;;;7794561;28;20634;-92
2023/01/20 08:36:39;;;;;;;37.47;18.87;;;0.80;99.90;;;;;;7810659;28;20171;-92
2023/01/20 08:40:25;;;;;;;41.97;19.90;;;0.70;99.90;;;;;;7810787;28;20195;-89
2023/01/20 08:44:11;;;;;;;43.07;19.53;;;0.80;99.90;;;;;;7810797;28;20178;-91
2023/01/20 08:48:01;;;;;;;41.07;20.07;;;0.80;99.90;;;;;;7809613;28;20264;-91
2023/01/20 08:51:47;;;;;;;43.07;20.00;;;0.80;99.90;;;;;;7811624;28;20876;-91
2023/01/20 08:55:33;;;;;;;45.50;23.07;;;0.80;99.90;;;;;;7793924;28;20547;-92
2023/01/20 08:59:19;;;;;;;44.07;21.33;;;0.80;99.90;;;;;;7793570;28;20203;-92
2023/01/20 09:03:05;;;;;;;40.70;19.60;;;0.80;99.90;;;;;;7793621;28;20179;-91
2023/01/20 09:06:51;;;;;;;44.93;21.53;;;0.70;99.90;;;;;;7798214;28;20294;-91
2023/01/20 09:10:37;;;;;;;47.80;22.13;;;0.80;99.90;;;;;;7793380;28;20621;-91
2023/01/20 09:14:24;;;;;;;65.57;28.53;;;0.80;99.90;;;;;;7811098;28;20174;-90
2023/01/20 09:18:09;;;;;;;87.70;38.17;;;0.90;99.90;;;;;;7786323;28;20659;-92
2023/01/20 09:21:55;;;;;;;71.37;31.43;;;0.90;99.90;;;;;;7786698;28;20675;-91
2023/01/20 09:25:41;;;;;;;63.87;30.37;;;0.90;99.90;;;;;;7790573;28;20183;-91
2023/01/20 09:29:26;;;;;;;65.63;27.40;;;0.90;99.90;;;;;;7780291;28;20214;-92
2023/01/20 09:33:12;;;;;;;70.23;28.63;;;0.90;99.90;;;;;;7789615;28;20181;-92
2023/01/20 09:43:52;;;;;;;67.77;27.83;;;1.00;99.90;;;;;;7790287;28;20181;-91
2023/01/20 09:45:42;;;;;;;77.40;28.27;;;1.00;99.90;;;;;;7780596;28;20183;-91
2023/01/20 09:53:59;;;;;;;90.23;32.70;;;1.00;99.90;;;;;;7793611;28;20612;-91
2023/01/20 09:57:51;;;;;;;63.50;24.63;;;1.00;99.90;;;;;;7785954;28;20734;-90
2023/01/20 10:02:04;;;;;;;64.97;29.13;;;1.00;99.90;;;;;;7794294;28;20549;-91
2023/01/20 10:05:53;;;;;;;65.77;29.43;;;1.00;99.90;;;;;;7791163;28;20270;-89
2023/01/20 10:10:08;;;;;;;64.93;30.03;;;1.00;99.90;;;;;;7803457;28;20215;-91
2023/01/20 10:14:26;;;;;;;59.67;23.87;;;1.00;99.90;;;;;;7804439;28;20167;-92
2023/01/20 10:18:27;;;;;;;61.47;22.93;;;1.00;99.90;;;;;;7791052;28;20620;-89
2023/01/20 10:22:41;;;;;;;56.77;21.70;;;1.00;99.90;;;;;;7791252;28;20209;-91
2023/01/20 10:26:41;;;;;;;61.10;21.37;;;1.00;99.90;;;;;;7808528;28;20186;-91
2023/01/20 10:30:32;;;;;;;60.87;22.97;;;1.00;99.90;;;;;;7789963;28;20214;-91
2023/01/20 10:34:20;;;;;;;48.43;21.80;;;1.00;99.90;;;;;;7808300;28;20601;-91
2023/01/20 10:38:18;;;;;;;47.70;20.77;;;0.90;99.90;;;;;;7790517;28;20179;-91
2023/01/20 10:42:09;;;;;;;49.63;22.20;;;1.10;99.90;;;;;;7789770;28;20204;-92
2023/01/20 10:46:00;;;;;;;62.07;27.20;;;1.10;99.90;;;;;;7800121;28;20179;-90
2023/01/20 10:50:08;;;;;;;120.20;42.20;;;1.10;99.90;;;;;;7806828;28;20218;-90
2023/01/20 10:54:15;;;;;;;212.13;74.10;;;1.10;99.90;;;;;;7783046;28;20183;-91
2023/01/20 10:58:05;;;;;;;105.43;44.10;;;1.10;99.90;;;;;;7771978;28;20186;-91
2023/01/20 11:01:51;;;;;;;76.17;36.10;;;1.10;99.90;;;;;;7788678;28;20247;-89
2023/01/20 11:05:37;;;;;;;64.87;27.47;;;1.20;99.90;;;;;;7765014;28;20186;-90
2023/01/20 11:09:34;;;;;;;48.83;20.13;;;1.10;99.90;;;;;;7777370;28;20218;-90
2023/01/20 11:13:20;;;;;;;49.07;22.20;;;1.10;99.90;;;;;;7759411;28;20186;-88
2023/01/20 11:17:11;;;;;;;58.83;24.17;;;1.20;99.90;;;;;;7780161;28;20186;-91
2023/01/20 11:20:57;;;;;;;52.87;24.27;;;1.10;99.90;;;;;;7786756;28;20206;-90
2023/01/20 11:24:44;;;;;;;50.30;23.33;;;1.20;99.90;;;;;;7780223;28;20183;-91
2023/01/20 11:28:36;;;;;;;61.63;26.03;;;1.20;99.90;;;;;;7806955;28;20209;-91
2023/01/20 11:32:38;;;;;;;62.63;27.50;;;1.20;99.90;;;;;;7789775;28;20265;-92
2023/01/20 11:36:25;;;;;;;54.00;22.40;;;1.20;99.90;;;;;;7788365;28;20213;-87
2023/01/20 11:40:24;;;;;;;59.07;23.00;;;1.20;99.90;;;;;;7774766;28;20231;-86
2023/01/20 11:44:19;;;;;;;58.40;22.93;;;1.10;99.90;;;;;;7775956;28;20159;-89
2023/01/20 11:48:14;;;;;;;58.87;22.83;;;1.10;99.90;;;;;;7763812;28;20677;-88
2023/01/20 11:52:00;;;;;;;62.10;26.80;;;1.10;99.90;;;;;;7761508;28;20537;-89
2023/01/20 11:56:16;;;;;;;52.90;25.20;;;1.10;99.90;;;;;;7770649;28;20551;-88
2023/01/20 12:00:03;;;;;;;72.30;31.77;;;1.10;99.90;;;;;;7774069;28;20770;-89
2023/01/20 12:04:09;;;;;;;66.27;32.40;;;1.10;99.90;;;;;;7789434;28;20174;-89
2023/01/20 12:07:55;;;;;;;68.23;32.93;;;1.10;99.90;;;;;;7812596;28;20185;-90
2023/01/20 12:12:18;;;;;;;50.47;24.33;;;1.10;99.90;;;;;;7795743;28;20199;-88
2023/01/20 12:16:04;;;;;;;49.07;21.07;;;1.10;99.90;;;;;;7794649;28;20640;-90
2023/01/20 12:19:59;;;;;;;55.30;21.23;;;1.10;99.90;;;;;;7794580;28;20195;-90
2023/01/20 12:24:10;;;;;;;46.10;22.17;;;1.10;99.90;;;;;;7777960;28;20294;-90
2023/01/20 12:28:11;;;;;;;52.97;23.37;;;1.10;99.90;;;;;;7806665;28;20224;-88
2023/01/20 12:31:57;;;;;;;75.40;31.80;;;1.10;99.90;;;;;;7791884;28;20194;-88
2023/01/20 12:35:59;;;;;;;65.70;31.07;;;1.20;99.90;;;;;;7781673;28;20189;-84
2023/01/20 12:40:12;;;;;;;53.20;21.90;;;1.10;99.90;;;;;;7809962;28;20198;-88
2023/01/20 12:44:03;;;;;;;57.00;23.90;;;1.10;99.90;;;;;;7783450;28;20217;-90
2023/01/20 12:48:07;;;;;;;73.00;31.23;;;1.00;99.90;;;;;;7793461;28;20239;-89
2023/01/20 12:52:08;;;;;;;75.47;31.50;;;1.10;99.90;;;;;;7798891;28;20194;-90
2023/01/20 12:56:28;;;;;;;56.43;27.00;;;1.10;99.90;;;;;;7792984;28;20581;-90
2023/01/20 13:00:52;;;;;;;54.17;25.87;;;1.10;99.90;;;;;;7788478;28;20210;-88
2023/01/20 13:05:07;;;;;;;55.87;24.27;;;1.10;99.90;;;;;;7787267;28;20182;-90
2023/01/20 13:09:18;;;;;;;62.10;29.23;;;1.00;99.90;;;;;;7801232;28;20308;-88
2023/01/20 13:13:24;;;;;;;58.37;24.70;;;1.00;99.90;;;;;;7810035;28;20729;-90
2023/01/20 13:17:21;;;;;;;56.23;25.87;;;1.00;99.90;;;;;;7809925;28;20214;-90
2023/01/20 13:21:15;;;;;;;53.30;25.43;;;1.00;99.90;;;;;;7810340;28;20221;-90
2023/01/20 13:25:03;;;;;;;51.10;24.27;;;1.00;99.90;;;;;;7788814;28;20814;-88
2023/01/20 13:28:51;;;;;;;57.77;25.47;;;1.00;99.90;;;;;;7769673;28;20207;-90
2023/01/20 13:32:47;;;;;;;55.93;24.20;;;1.00;99.90;;;;;;7787545;28;20187;-89
2023/01/20 13:36:32;;;;;;;56.40;25.03;;;1.00;99.90;;;;;;7775299;28;20189;-88
2023/01/20 13:40:36;;;;;;;64.70;25.70;;;1.10;99.90;;;;;;7792734;28;20215;-88
2023/01/20 13:44:36;;;;;;;58.43;24.77;;;1.10;99.90;;;;;;7775099;28;20270;-88
2023/01/20 13:48:24;;;;;;;70.50;26.43;;;1.10;99.90;;;;;;7793182;28;20202;-90
2023/01/20 13:52:10;;;;;;;70.77;27.87;;;1.10;99.90;;;;;;7768251;28;20242;-89
2023/01/20 13:55:58;;;;;;;78.87;28.43;;;1.00;99.90;;;;;;7789320;28;20183;-89
2023/01/20 13:59:44;;;;;;;59.27;25.27;;;1.00;99.90;;;;;;7761080;28;20245;-90
2023/01/20 14:03:35;;;;;;;75.70;27.07;;;1.00;99.90;;;;;;7761097;28;20325;-89
2023/01/20 14:07:29;;;;;;;71.50;29.10;;;1.00;99.90;;;;;;7780480;28;20217;-90
2023/01/20 14:11:25;;;;;;;65.10;26.97;;;1.00;99.90;;;;;;7790770;28;20703;-90
2023/01/20 14:15:30;;;;;;;61.03;24.77;;;1.00;99.90;;;;;;7808984;28;20845;-90
2023/01/20 14:19:25;;;;;;;63.80;28.40;;;1.00;99.90;;;;;;7790667;28;20198;-90
2023/01/20 14:23:36;;;;;;;69.13;26.37;;;1.00;99.90;;;;;;7782399;28;20558;-90
2023/01/20 14:27:28;;;;;;;64.77;26.17;;;1.00;99.90;;;;;;7789733;28;20175;-90
2023/01/20 14:31:18;;;;;;;51.60;24.40;;;0.90;99.90;;;;;;7807639;28;20725;-90
2023/01/20 14:35:26;;;;;;;47.63;22.90;;;1.00;99.90;;;;;;7808635;28;20174;-90
2023/01/20 14:39:24;;;;;;;46.77;23.33;;;1.00;99.90;;;;;;7787036;28;20214;-91
2023/01/20 14:43:19;;;;;;;47.87;22.00;;;1.10;99.90;;;;;;7777532;28;20309;-90
2023/01/20 14:47:04;;;;;;;49.07;19.77;;;1.10;99.90;;;;;;7760121;28;20265;-90
2023/01/20 14:50:54;;;;;;;49.13;22.03;;;1.10;99.90;;;;;;7759891;28;20207;-89
2023/01/20 14:54:42;;;;;;;45.17;20.57;;;1.10;99.90;;;;;;7760107;28;20175;-89
2023/01/20 14:58:31;;;;;;;45.60;19.97;;;1.10;99.90;;;;;;7797066;22;20697;-89
2023/01/20 15:02:28;;;;;;;51.50;22.33;;;1.10;99.90;;;;;;7790497;28;20171;-89
2023/01/20 15:06:20;;;;;;;49.67;22.33;;;1.00;99.90;;;;;;7773597;28;20965;-90
2023/01/20 15:10:32;;;;;;;55.00;24.07;;;1.10;99.90;;;;;;7764562;28;20227;-89
2023/01/20 15:14:17;;;;;;;57.63;24.40;;;1.00;99.90;;;;;;7746653;28;20180;-90
2023/01/20 15:18:22;;;;;;;47.00;20.57;;;1.00;99.90;;;;;;7745708;28;20242;-90
2023/01/20 15:22:19;;;;;;;44.23;20.30;;;1.00;99.90;;;;;;7745864;28;20163;-90
2023/01/20 15:26:08;;;;;;;47.83;23.70;;;1.10;99.90;;;;;;7745522;28;20227;-91
2023/01/20 15:29:58;;;;;;;45.80;21.27;;;1.00;99.90;;;;;;7745547;28;20728;-90
2023/01/20 15:33:44;;;;;;;49.23;22.60;;;1.10;99.90;;;;;;7745598;28;20190;-90
2023/01/20 15:37:30;;;;;;;47.87;20.57;;;1.00;99.90;;;;;;7748165;28;20286;-91
2023/01/20 15:41:26;;;;;;;43.40;19.20;;;0.90;99.90;;;;;;7751765;28;20179;-91
2023/01/20 15:45:15;;;;;;;43.40;19.47;;;0.90;99.90;;;;;;7749519;28;20203;-91
2023/01/20 15:49:01;;;;;;;45.60;20.63;;;0.90;99.90;;;;;;7771158;28;20624;-91
2023/01/20 15:52:48;;;;;;;53.83;21.30;;;1.00;99.90;;;;;;7759978;28;20627;-91
2023/01/20 15:56:37;;;;;;;50.60;22.13;;;1.00;99.90;;;;;;7753260;28;20262;-91
2023/01/20 16:00:42;;;;;;;53.00;24.17;;;0.90;99.90;;;;;;7750216;28;20662;-91
2023/01/20 16:04:30;;;;;;;48.77;21.50;;;1.00;99.90;;;;;;7761055;28;20766;-91
2023/01/20 16:08:36;;;;;;;56.87;23.27;;;0.90;99.90;;;;;;7743103;28;20692;-91
2023/01/20 16:12:21;;;;;;;95.17;34.37;;;1.00;99.90;;;;;;7748877;28;20211;-91
2023/01/20 16:16:15;;;;;;;54.67;23.53;;;0.90;99.90;;;;;;7750762;28;20279;-91
2023/01/20 16:20:01;;;;;;;50.97;22.80;;;0.90;99.90;;;;;;7750882;28;20650;-90
2023/01/20 16:23:46;;;;;;;49.50;23.13;;;0.90;99.90;;;;;;7768800;28;20727;-90
2023/01/20 16:27:32;;;;;;;50.57;20.63;;;0.80;99.90;;;;;;7814040;28;20202;-90
2023/01/20 16:32:02;;;;;;;50.10;21.87;;;0.80;99.90;;;;;;7814057;28;20199;-90
2023/01/20 16:35:53;;;;;;;53.60;23.63;;;0.80;99.90;;;;;;7781714;28;20206;-90
2023/01/20 16:39:39;;;;;;;45.73;20.30;;;0.70;99.90;;;;;;7780545;28;20190;-91
2023/01/20 16:43:25;;;;;;;41.67;18.17;;;0.80;99.90;;;;;;7781784;28;20648;-90
2023/01/20 16:47:10;;;;;;;37.57;17.83;;;0.80;99.90;;;;;;7813258;28;20298;-90
2023/01/20 16:51:03;;;;;;;41.27;17.80;;;0.80;99.90;;;;;;7813134;28;20225;-90
2023/01/20 16:54:48;;;;;;;42.47;18.33;;;0.90;99.90;;;;;;7780164;28;20230;-90
2023/01/20 16:58:34;;;;;;;44.03;18.87;;;0.90;99.90;;;;;;7809217;28;20199;-89
2023/01/20 17:02:20;;;;;;;49.20;20.30;;;0.90;99.90;;;;;;7756807;28;20219;-90
2023/01/20 17:06:19;;;;;;;40.80;19.53;;;0.90;99.90;;;;;;7746265;28;20320;-91
2023/01/20 17:10:05;;;;;;;49.83;22.53;;;0.80;99.90;;;;;;7776969;28;20196;-93
2023/01/20 17:13:52;;;;;;;49.40;20.47;;;1.10;99.90;;;;;;7739528;28;20181;-91
2023/01/20 17:17:37;;;;;;;46.43;20.37;;;1.30;99.90;;;;;;7721364;28;20335;-92
2023/01/20 17:21:26;;;;;;;55.27;25.30;;;1.40;99.90;;;;;;7726938;28;20184;-92
2023/01/20 17:25:26;;;;;;;41.57;18.97;;;1.50;99.90;;;;;;7750508;28;20184;-92
2023/01/20 17:29:12;;;;;;;39.37;16.03;;;1.70;99.90;;;;;;7748913;28;20195;-91
2023/01/20 17:32:57;;;;;;;33.23;15.67;;;1.70;99.90;;;;;;7749058;28;20176;-91
2023/01/20 17:36:43;;;;;;;52.77;22.77;;;1.80;99.90;;;;;;7750922;28;20478;-92
2023/01/20 17:40:29;;;;;;;75.10;34.13;;;1.70;99.90;;;;;;7752458;28;20184;-92
2023/01/20 17:44:15;;;;;;;50.77;26.43;;;1.80;99.90;;;;;;7752410;28;20175;-92
2023/01/20 17:48:00;;;;;;;47.40;22.67;;;1.80;99.90;;;;;;7752122;28;20572;-93
2023/01/20 17:51:46;;;;;;;46.53;23.23;;;1.80;99.90;;;;;;7752710;28;20184;-92
2023/01/20 17:55:31;;;;;;;45.80;20.67;;;1.90;99.90;;;;;;7749715;28;20343;-91
2023/01/20 17:59:17;;;;;;;48.30;24.73;;;1.80;99.90;;;;;;7747333;28;20560;-90
2023/01/20 18:03:27;;;;;;;50.70;25.83;;;1.80;99.90;;;;;;7778589;28;20177;-92
2023/01/20 18:07:20;;;;;;;36.77;16.87;;;1.80;99.90;;;;;;7747342;28;20262;-91
2023/01/20 18:11:19;;;;;;;44.73;22.33;;;1.80;99.90;;;;;;7748000;28;20200;-91
2023/01/20 18:15:12;;;;;;;35.80;19.27;;;1.80;99.90;;;;;;7748150;28;20226;-90
2023/01/20 18:18:57;;;;;;;38.83;18.47;;;1.70;99.90;;;;;;7749703;28;20281;-93
2023/01/20 18:22:49;;;;;;;35.57;19.80;;;1.70;99.90;;;;;;7749482;28;20188;-92
2023/01/20 18:26:52;;;;;;;41.20;19.63;;;1.70;99.90;;;;;;7749036;28;20669;-91
2023/01/20 18:30:37;;;;;;;40.53;20.53;;;1.80;99.90;;;;;;7755822;28;20204;-91
2023/01/20 18:34:24;;;;;;;48.27;23.13;;;1.70;99.90;;;;;;7749012;28;20208;-92
2023/01/20 18:38:12;;;;;;;38.07;19.90;;;1.70;99.90;;;;;;7755823;28;20195;-91
2023/01/20 18:41:57;;;;;;;36.17;18.77;;;1.70;99.90;;;;;;7756404;28;20172;-92
2023/01/20 18:45:53;;;;;;;43.77;20.23;;;1.50;99.90;;;;;;7762248;28;20222;-92
2023/01/20 18:49:45;;;;;;;39.40;19.00;;;1.50;99.90;;;;;;7755080;28;20200;-91
2023/01/20 18:53:33;;;;;;;41.07;20.33;;;1.70;99.90;;;;;;7730716;28;20187;-90
2023/01/20 18:57:21;;;;;;;33.00;18.13;;;1.60;99.90;;;;;;7760859;28;20200;-90
2023/01/20 19:01:12;;;;;;;37.17;18.57;;;1.60;99.90;;;;;;7784750;28;20187;-89
2023/01/20 19:04:57;;;;;;;39.47;18.93;;;1.50;99.90;;;;;;7787625;28;20191;-89
2023/01/20 19:08:45;;;;;;;43.33;19.20;;;1.50;99.90;;;;;;7777567;28;20212;-91
2023/01/20 19:12:30;;;;;;;51.33;22.40;;;1.40;99.90;;;;;;7754302;28;20194;-90
2023/01/20 19:16:18;;;;;;;39.13;17.67;;;1.40;99.90;;;;;;7745871;28;20204;-92
2023/01/20 19:20:11;;;;;;;38.63;19.00;;;1.40;99.90;;;;;;7774712;28;20179;-89
2023/01/20 19:23:58;;;;;;;40.97;18.43;;;1.40;99.90;;;;;;7811945;28;20548;-90
2023/01/20 19:27:43;;;;;;;36.80;17.90;;;1.50;99.90;;;;;;7776908;28;20207;-90
2023/01/20 19:31:34;;;;;;;39.13;18.40;;;1.30;99.90;;;;;;7810996;28;20569;-91
2023/01/20 19:35:20;;;;;;;39.53;17.50;;;1.30;99.90;;;;;;7776240;28;20175;-92
2023/01/20 19:39:06;;;;;;;42.10;17.77;;;1.30;99.90;;;;;;7788960;28;20180;-91
2023/01/20 19:42:52;;;;;;;29.40;15.77;;;1.30;99.90;;;;;;7745645;28;20184;-91
2023/01/20 19:46:38;;;;;;;51.67;21.57;;;1.20;99.90;;;;;;7746194;28;20239;-92
2023/01/20 19:50:23;;;;;;;28.33;12.90;;;1.20;99.90;;;;;;7748025;28;20214;-93
2023/01/20 19:54:12;;;;;;;31.17;13.00;;;1.10;99.90;;;;;;7758236;28;20584;-90
2023/01/20 19:57:58;;;;;;;35.10;13.07;;;1.10;99.90;;;;;;7746930;28;20218;-90